»·PEaware :: FFT250 KYKM-KOTH

FFT250 :: KYKM-KOTH

FLIGHT INFORMATION

Flight Status: Arrived
Operator:
Frontier Airlines
More flights by this operator :: More flights under this callsign
Pilot: Anonymous 13363 (13363)
Aircraft: AIRBUS A320
(A320)
More flights by this aircraft type
Origin: KYKM Yakima Air Term/Mcallister
United States
Destination: KOTH North Bend Mun
United States
More flights between these airports :: More routes between these airports
Route: +GROMO4 HITCH OTH
File this flight plan on PilotEdge
Remarks:
Altitude:
(Current/Filed)
36,000ft
Speed:
(Current/Filed)
460kts
Departed: 01-Nov-17 04:58 PM
Arrived: 01-Nov-17 05:46 PM
Distance/Time
Traveled:
246nm/0:48
Distance/Time
To Go:
Arrived

Flight Plot

Page will automatically refresh every two minutes.

Flight plan parsing failed; only flown route is shown


Map Options




Map Legend


Flown Route
Filed Route
Departure Airport
Arrival Airport
Navaid (VOR, NDB)
Fix

Horizontal Profiles

Position Reports

Time Latitude Longitude Heading Altitude Ground
Speed
01-Nov-17 16:47 46.569874 -120.540557 107 1108ft 0kts
01-Nov-17 16:48 46.569874 -120.540557 107 1108ft 0kts
01-Nov-17 16:49 46.569874 -120.540557 107 1108ft 0kts
01-Nov-17 16:50 46.569874 -120.540557 107 1108ft 0kts
01-Nov-17 16:51 46.569874 -120.540557 107 1108ft 0kts
01-Nov-17 16:52 46.569874 -120.540557 107 1108ft 0kts
01-Nov-17 16:53 46.569874 -120.540557 107 1108ft 0kts
01-Nov-17 16:54 46.569824 -120.540546 195 1108ft 0kts
01-Nov-17 16:55 46.569820 -120.540551 204 1108ft 0kts
01-Nov-17 16:56 46.569674 -120.540655 205 1108ft 2kts
01-Nov-17 16:57 46.568995 -120.540445 112 1108ft 4kts
01-Nov-17 16:58 46.568172 -120.537377 109 1108ft 9kts
01-Nov-17 16:59 46.567275 -120.533874 108 1108ft 13kts
01-Nov-17 17:00 46.566559 -120.531540 168 1108ft 0kts
01-Nov-17 17:01 46.566549 -120.531538 168 1108ft 0kts
01-Nov-17 17:02 46.565598 -120.531848 289 1108ft 0kts
01-Nov-17 17:03 46.566747 -120.536295 289 1108ft 92kts
01-Nov-17 17:04 46.581198 -120.604703 270 3159ft 221kts
01-Nov-17 17:05 46.530570 -120.660380 164 6047ft 291kts
01-Nov-17 17:06 46.453626 -120.632649 206 9588ft 299kts
01-Nov-17 17:07 46.391555 -120.721171 228 11595ft 346kts
01-Nov-17 17:08 46.318260 -120.813029 225 14587ft 360kts
01-Nov-17 17:09 46.244661 -120.903883 226 17112ft 371kts
01-Nov-17 17:10 46.171028 -120.994511 227 19340ft 382kts
01-Nov-17 17:11 46.097591 -121.084569 228 21310ft 391kts
01-Nov-17 17:12 46.023060 -121.175641 228 22848ft 397kts
01-Nov-17 17:13 45.949305 -121.265400 228 22907ft 397kts
01-Nov-17 17:14 45.884900 -121.343546 228 22908ft 397kts
01-Nov-17 17:15 45.805863 -121.439109 228 22909ft 397kts
01-Nov-17 17:16 45.724457 -121.537162 228 22909ft 397kts
01-Nov-17 17:17 45.641004 -121.637279 228 22909ft 397kts
01-Nov-17 17:18 45.564284 -121.728952 227 23420ft 402kts
01-Nov-17 17:19 45.480313 -121.828922 228 25182ft 409kts
01-Nov-17 17:20 45.398232 -121.926253 229 26716ft 416kts
01-Nov-17 17:21 45.312166 -122.028099 227 26994ft 447kts
01-Nov-17 17:22 45.224300 -122.131233 227 26995ft 444kts
01-Nov-17 17:23 45.132636 -122.238535 227 26995ft 443kts
01-Nov-17 17:24 45.040208 -122.346311 227 26995ft 443kts
01-Nov-17 17:25 44.951177 -122.449679 227 27023ft 442kts
01-Nov-17 17:26 44.871842 -122.541431 227 27021ft 442kts
01-Nov-17 17:27 44.782152 -122.644751 227 27022ft 441kts
01-Nov-17 17:28 44.698978 -122.739978 227 27017ft 416kts
01-Nov-17 17:29 44.610581 -122.841331 226 26684ft 445kts
01-Nov-17 17:31 44.431513 -123.044488 226 22804ft 443kts
01-Nov-17 17:32 44.351968 -123.134258 226 20610ft 431kts
01-Nov-17 17:33 44.290861 -123.202967 225 18887ft 423kts
01-Nov-17 17:34 44.208045 -123.296153 225 16484ft 409kts
01-Nov-17 17:35 44.121984 -123.392332 225 13922ft 394kts
01-Nov-17 17:36 44.039308 -123.484269 224 11639ft 372kts
01-Nov-17 17:37 43.961571 -123.570549 224 10956ft 328kts
01-Nov-17 17:38 43.896951 -123.641907 225 10581ft 282kts
01-Nov-17 17:39 43.838628 -123.706389 224 9379ft 272kts
01-Nov-17 17:40 43.781495 -123.769225 222 8356ft 257kts
01-Nov-17 17:41 43.726141 -123.830104 219 7093ft 254kts
01-Nov-17 17:42 43.671534 -123.889993 219 5931ft 249kts
01-Nov-17 17:43 43.617598 -123.948900 219 4781ft 245kts
01-Nov-17 17:44 43.564827 -124.006393 219 4009ft 241kts
01-Nov-17 17:45 43.512555 -124.063208 219 4013ft 227kts
01-Nov-17 17:46 43.466526 -124.113517 220 3474ft 211kts
01-Nov-17 17:47 43.458738 -124.185342 285 1831ft 207kts
01-Nov-17 17:48 43.476624 -124.178723 156 2028ft 148kts
01-Nov-17 17:49 43.441632 -124.200170 227 955ft 132kts
01-Nov-17 17:50 43.422500 -124.241672 241 65ft 126kts
01-Nov-17 17:51 43.415816 -124.255725 148 26ft 0kts
01-Nov-17 17:52 43.415653 -124.255423 96 26ft 3kts
01-Nov-17 17:53 43.416466 -124.253303 61 26ft 9kts
01-Nov-17 17:54 43.417794 -124.249648 117 26ft 7kts
01-Nov-17 17:55 43.416887 -124.249244 354 26ft 1kts
01-Nov-17 17:56 43.416918 -124.249234 4 26ft 0kts
01-Nov-17 17:57 43.416918 -124.249234 4 26ft 0kts
01-Nov-17 17:58 43.416918 -124.249234 4 26ft 0kts
01-Nov-17 17:59 43.416918 -124.249234 4 26ft 0kts
01-Nov-17 18:00 43.416918 -124.249234 4 26ft 0kts
01-Nov-17 18:01 43.416918 -124.249234 4 26ft 0kts
01-Nov-17 18:02 43.416918 -124.249234 4 26ft 0kts
01-Nov-17 18:03 43.416918 -124.249234 4 26ft 0kts
01-Nov-17 18:04 43.416918 -124.249234 4 26ft 0kts
01-Nov-17 18:05 43.416918 -124.249234 4 26ft 0kts
01-Nov-17 18:06 43.416918 -124.249234 4 26ft 0kts

Navigation Log

Ident Type
Flight plan parsing failed, navigation log unavailable